createdAt,value
2018-09-11T00:02:25.631Z,16.10
2018-09-11T00:04:53.916Z,16.10
2018-09-11T00:07:22.188Z,16.00
2018-09-11T00:09:50.462Z,16.00
2018-09-11T00:12:18.737Z,16.00
2018-09-11T00:14:46.979Z,15.90
2018-09-11T00:17:15.228Z,15.90
2018-09-11T00:19:43.506Z,15.80
2018-09-11T00:22:11.776Z,15.80
2018-09-11T00:24:40.060Z,15.70
2018-09-11T00:27:08.380Z,15.70
2018-09-11T00:29:36.659Z,15.60
2018-09-11T00:32:04.925Z,15.60
2018-09-11T00:34:33.181Z,15.50
2018-09-11T00:37:01.559Z,15.50
2018-09-11T00:39:29.827Z,15.50
2018-09-11T00:41:58.143Z,15.40
2018-09-11T00:44:26.366Z,15.40
2018-09-11T00:46:54.608Z,15.30
2018-09-11T00:49:22.887Z,15.30
2018-09-11T00:51:51.229Z,15.20
2018-09-11T00:54:19.528Z,15.30
2018-09-11T00:56:47.780Z,15.20
2018-09-11T00:59:16.388Z,15.20
2018-09-11T01:01:44.694Z,15.20
2018-09-11T01:04:12.943Z,15.20
2018-09-11T01:06:41.219Z,15.20
2018-09-11T01:09:10.428Z,15.20
2018-09-11T01:11:38.680Z,15.20
2018-09-11T01:14:06.945Z,15.20
2018-09-11T01:16:35.204Z,15.10
2018-09-11T01:19:03.473Z,15.10
2018-09-11T01:21:31.744Z,15.00
2018-09-11T01:24:00.028Z,15.00
2018-09-11T01:26:28.310Z,14.90
2018-09-11T01:28:56.580Z,14.90
2018-09-11T01:31:24.852Z,14.80
2018-09-11T01:33:53.108Z,14.80
2018-09-11T01:36:21.422Z,14.80
2018-09-11T01:38:49.712Z,14.70
2018-09-11T01:41:18.000Z,14.60
2018-09-11T01:43:46.277Z,14.60
2018-09-11T01:46:14.532Z,14.60
2018-09-11T01:48:42.814Z,14.60
2018-09-11T01:51:11.093Z,14.50
2018-09-11T01:53:39.372Z,14.50
2018-09-11T01:56:07.644Z,14.50
2018-09-11T01:58:35.917Z,14.50
2018-09-11T02:01:04.201Z,14.60
2018-09-11T02:03:32.473Z,14.50
2018-09-11T02:06:00.747Z,14.50
2018-09-11T02:08:29.001Z,14.50
2018-09-11T02:10:57.290Z,14.50
2018-09-11T02:13:25.628Z,14.50
2018-09-11T02:15:53.906Z,14.40
2018-09-11T02:18:22.165Z,14.40
2018-09-11T02:20:50.432Z,14.40
2018-09-11T02:23:18.695Z,14.30
2018-09-11T02:25:46.961Z,14.30
2018-09-11T02:28:15.239Z,14.30
2018-09-11T02:30:43.505Z,14.20
2018-09-11T02:33:11.787Z,14.20
2018-09-11T02:35:40.121Z,14.20
2018-09-11T02:38:08.365Z,14.10
2018-09-11T02:40:36.625Z,14.10
2018-09-11T02:43:04.920Z,14.10
2018-09-11T02:45:33.177Z,14.00
2018-09-11T02:48:01.444Z,14.00
2018-09-11T02:50:29.713Z,14.00
2018-09-11T02:52:57.987Z,13.90
2018-09-11T02:55:26.214Z,13.90
2018-09-11T02:57:54.484Z,13.90
2018-09-11T03:00:22.769Z,13.80
2018-09-11T03:02:51.049Z,13.80
2018-09-11T03:05:19.413Z,13.70
2018-09-11T03:07:47.697Z,13.70
2018-09-11T03:10:15.964Z,13.70
2018-09-11T03:12:44.281Z,13.60
2018-09-11T03:15:12.530Z,13.70
2018-09-11T03:17:40.800Z,13.60
2018-09-11T03:20:09.082Z,13.70
2018-09-11T03:22:37.359Z,13.70
2018-09-11T03:25:05.649Z,13.60
2018-09-11T03:27:33.917Z,13.60
2018-09-11T03:30:02.178Z,13.60
2018-09-11T03:32:30.433Z,13.60
2018-09-11T03:34:58.698Z,13.60
2018-09-11T03:37:27.075Z,13.60
2018-09-11T03:39:55.351Z,13.60
2018-09-11T03:42:23.625Z,13.60
2018-09-11T03:44:51.917Z,13.60
2018-09-11T03:47:20.185Z,13.50
2018-09-11T03:49:48.465Z,13.50
2018-09-11T03:52:16.811Z,13.40
2018-09-11T03:54:45.116Z,13.40
2018-09-11T03:57:13.393Z,13.40
2018-09-11T03:59:41.695Z,13.30
2018-09-11T04:02:09.999Z,13.30
2018-09-11T04:04:38.297Z,13.20
2018-09-11T04:07:06.597Z,13.20
2018-09-11T04:09:34.869Z,13.10
2018-09-11T04:12:03.146Z,13.10
2018-09-11T04:14:31.449Z,13.00
2018-09-11T04:16:59.981Z,13.00
2018-09-11T04:19:28.253Z,13.00
2018-09-11T04:21:56.519Z,12.90
2018-09-11T04:24:24.787Z,12.90
2018-09-11T04:26:53.061Z,12.90
2018-09-11T04:29:21.349Z,12.90
2018-09-11T04:31:49.619Z,12.90
2018-09-11T04:34:17.927Z,12.90
2018-09-11T04:36:46.172Z,12.90
2018-09-11T04:39:14.423Z,12.90
2018-09-11T04:41:42.703Z,12.80
2018-09-11T04:44:10.981Z,12.80
2018-09-11T04:46:39.291Z,12.80
2018-09-11T04:49:07.555Z,12.80
2018-09-11T04:51:35.837Z,12.80
2018-09-11T04:54:04.165Z,12.80
2018-09-11T04:56:32.423Z,12.80
2018-09-11T04:59:00.719Z,12.80
2018-09-11T05:01:28.976Z,12.80
2018-09-11T05:03:57.257Z,12.80
2018-09-11T05:06:25.529Z,12.80
2018-09-11T05:08:53.861Z,12.80
2018-09-11T05:11:22.155Z,12.80
2018-09-11T05:13:50.447Z,12.80
2018-09-11T05:16:18.756Z,12.80
2018-09-11T05:18:47.021Z,12.90
2018-09-11T05:21:15.301Z,12.90
2018-09-11T05:23:43.579Z,12.90
2018-09-11T05:26:11.869Z,12.90
2018-09-11T05:28:40.155Z,12.90
2018-09-11T05:31:08.817Z,12.90
2018-09-11T05:33:37.098Z,12.90
2018-09-11T05:36:05.360Z,12.90
2018-09-11T05:38:33.657Z,12.90
2018-09-11T05:41:01.915Z,12.90
2018-09-11T05:43:30.183Z,13.00
2018-09-11T05:45:58.457Z,13.00
2018-09-11T05:48:26.718Z,12.90
2018-09-11T05:50:55.006Z,13.00
2018-09-11T05:53:23.296Z,13.00
2018-09-11T05:55:51.579Z,13.00
2018-09-11T05:58:19.988Z,13.00
2018-09-11T06:00:48.229Z,13.00
2018-09-11T06:03:16.510Z,13.00
2018-09-11T06:05:44.788Z,13.00
2018-09-11T06:08:13.051Z,13.10
2018-09-11T06:10:41.319Z,13.10
2018-09-11T06:13:09.611Z,13.20
2018-09-11T06:15:37.916Z,13.30
2018-09-11T06:18:06.245Z,13.30
2018-09-11T06:20:34.527Z,13.40
2018-09-11T06:23:02.813Z,13.50
2018-09-11T06:25:31.082Z,13.60
2018-09-11T06:27:59.367Z,13.60
2018-09-11T06:30:27.633Z,13.70
2018-09-11T06:32:55.921Z,13.80
2018-09-11T06:35:24.212Z,13.90
2018-09-11T06:37:52.453Z,13.90
2018-09-11T06:40:20.837Z,14.00
2018-09-11T06:42:49.105Z,14.20
2018-09-11T06:45:17.443Z,14.20
2018-09-11T06:47:45.735Z,14.40
2018-09-11T06:50:14.041Z,14.50
2018-09-11T06:52:43.297Z,14.70
2018-09-11T06:55:11.563Z,14.80
2018-09-11T06:57:39.833Z,15.00
2018-09-11T07:00:08.165Z,15.10
2018-09-11T07:02:36.441Z,15.20
2018-09-11T07:05:04.757Z,15.40
2018-09-11T07:07:33.385Z,15.50
2018-09-11T07:10:01.657Z,15.70
2018-09-11T07:12:29.951Z,15.80
2018-09-11T07:14:58.204Z,15.90
2018-09-11T07:17:26.485Z,16.00
2018-09-11T07:19:54.906Z,16.00
2018-09-11T07:22:23.055Z,16.10
2018-09-11T07:24:51.316Z,16.20
2018-09-11T07:27:19.760Z,16.20
2018-09-11T07:29:48.513Z,16.30
2018-09-11T07:32:17.322Z,16.40
2018-09-11T07:34:45.584Z,16.50
2018-09-11T07:37:13.884Z,16.60
2018-09-11T07:39:42.164Z,16.70
2018-09-11T07:42:10.434Z,16.70
2018-09-11T07:44:38.696Z,16.70
2018-09-11T07:47:06.976Z,16.70
2018-09-11T07:49:35.241Z,16.70
2018-09-11T07:52:03.536Z,16.70
2018-09-11T07:54:31.782Z,16.70
2018-09-11T07:57:00.434Z,16.70
2018-09-11T07:59:28.707Z,16.80
2018-09-11T08:01:56.971Z,16.90
2018-09-11T08:04:25.288Z,16.90
2018-09-11T08:06:53.548Z,17.00
2018-09-11T08:09:21.835Z,17.00
2018-09-11T08:11:50.138Z,17.00
2018-09-11T08:14:18.380Z,17.10
2018-09-11T08:16:46.664Z,17.10
2018-09-11T08:19:14.984Z,17.20
2018-09-11T08:21:43.259Z,17.30
2018-09-11T08:24:11.543Z,17.30
2018-09-11T08:26:39.838Z,17.40
2018-09-11T08:29:08.165Z,17.40
2018-09-11T08:31:36.440Z,17.50
2018-09-11T08:34:04.720Z,17.50
2018-09-11T08:36:33.092Z,17.60
2018-09-11T08:39:03.901Z,17.70
2018-09-11T08:41:32.357Z,17.80
2018-09-11T08:44:02.937Z,17.90
2018-09-11T08:46:31.334Z,18.00
2018-09-11T08:48:59.630Z,18.10
2018-09-11T08:51:27.929Z,18.30
2018-09-11T08:53:56.353Z,18.50
2018-09-11T08:56:24.632Z,18.60
2018-09-11T08:58:52.903Z,18.70
2018-09-11T09:01:21.179Z,18.80
2018-09-11T09:03:49.440Z,18.80
2018-09-11T09:06:17.725Z,18.80
2018-09-11T09:08:46.034Z,18.90
2018-09-11T09:11:14.519Z,19.00
2018-09-11T09:13:42.829Z,19.10
2018-09-11T09:16:11.124Z,19.20
2018-09-11T09:18:39.418Z,19.30
2018-09-11T09:21:07.709Z,19.30
2018-09-11T09:23:36.010Z,19.40
2018-09-11T09:26:04.283Z,19.60
2018-09-11T09:28:32.610Z,19.60
2018-09-11T09:31:00.887Z,19.70
2018-09-11T09:33:29.169Z,19.80
2018-09-11T09:35:57.460Z,19.80
2018-09-11T09:38:25.953Z,19.90
2018-09-11T09:40:54.260Z,19.90
2018-09-11T09:43:22.615Z,20.00
2018-09-11T09:45:51.597Z,20.10
2018-09-11T09:48:19.865Z,20.20
2018-09-11T09:50:48.202Z,20.30
2018-09-11T09:53:16.429Z,20.40
2018-09-11T09:55:44.718Z,20.40
2018-09-11T09:58:12.983Z,20.50
2018-09-11T10:00:46.580Z,20.60
2018-09-11T10:03:15.920Z,20.80
2018-09-11T10:05:44.220Z,20.90
2018-09-11T10:08:12.472Z,21.00
2018-09-11T10:10:40.740Z,21.00
2018-09-11T10:13:09.000Z,21.10
2018-09-11T10:15:37.244Z,21.20
2018-09-11T10:18:06.085Z,21.30
2018-09-11T10:20:34.360Z,21.40
2018-09-11T10:23:02.642Z,21.40
2018-09-11T10:25:30.940Z,21.40
2018-09-11T10:27:59.208Z,21.50
2018-09-11T10:30:27.508Z,21.50
2018-09-11T10:32:55.788Z,21.60
2018-09-11T10:35:24.137Z,21.70
2018-09-11T10:37:52.656Z,21.70
2018-09-11T10:40:20.929Z,21.70
2018-09-11T10:42:49.192Z,21.80
2018-09-11T10:45:17.464Z,21.90
2018-09-11T10:47:45.722Z,22.10
2018-09-11T10:50:13.981Z,22.10
2018-09-11T10:52:42.312Z,22.20
2018-09-11T10:55:10.567Z,22.20
2018-09-11T10:57:38.863Z,22.30
2018-09-11T11:00:07.235Z,22.30
2018-09-11T11:02:35.501Z,22.40
2018-09-11T11:05:03.775Z,22.40
2018-09-11T11:07:32.036Z,22.40
2018-09-11T11:10:00.341Z,22.50
2018-09-11T11:12:29.508Z,22.50
2018-09-11T11:14:57.791Z,22.50
2018-09-11T11:17:26.081Z,22.50
2018-09-11T11:19:54.369Z,22.50
2018-09-11T11:22:22.647Z,22.50
2018-09-11T11:24:50.907Z,22.50
2018-09-11T11:27:19.320Z,22.50
2018-09-11T11:29:47.612Z,22.70
2018-09-11T11:32:16.143Z,22.80
2018-09-11T11:34:44.441Z,22.80
2018-09-11T11:37:12.987Z,22.80
2018-09-11T11:39:41.105Z,22.80
2018-09-11T11:42:09.413Z,22.90
2018-09-11T11:44:37.708Z,22.90
2018-09-11T11:47:06.241Z,22.90
2018-09-11T11:49:34.838Z,22.90
2018-09-11T11:52:03.105Z,23.00
2018-09-11T11:54:31.391Z,23.00
2018-09-11T11:56:59.681Z,23.10
2018-09-11T11:59:27.952Z,23.10
2018-09-11T12:01:56.280Z,23.10
2018-09-11T12:04:25.176Z,23.10
2018-09-11T12:06:53.467Z,23.20
2018-09-11T12:09:21.845Z,23.20
2018-09-11T12:11:50.179Z,23.20
2018-09-11T12:14:18.501Z,23.20
2018-09-11T12:16:46.795Z,23.20
2018-09-11T12:19:15.160Z,23.30
2018-09-11T12:21:43.471Z,23.30
2018-09-11T12:24:11.761Z,23.30
2018-09-11T12:26:40.081Z,23.30
2018-09-11T12:29:08.329Z,23.30
2018-09-11T12:31:36.632Z,23.40
2018-09-11T12:34:04.912Z,23.40
2018-09-11T12:36:33.175Z,23.40
2018-09-11T12:39:01.544Z,23.50
2018-09-11T12:41:29.870Z,23.60
2018-09-11T12:43:58.188Z,23.50
2018-09-11T12:46:26.708Z,23.60
2018-09-11T12:48:54.714Z,23.60
2018-09-11T12:51:22.987Z,23.60
2018-09-11T12:53:51.500Z,23.70
2018-09-11T12:56:19.796Z,23.70
2018-09-11T12:58:48.708Z,23.80
2018-09-11T13:01:17.020Z,23.80
2018-09-11T13:03:45.278Z,23.80
2018-09-11T13:06:13.564Z,23.90
2018-09-11T13:08:41.844Z,24.00
2018-09-11T13:11:10.241Z,24.00
2018-09-11T13:13:38.528Z,24.00
2018-09-11T13:16:06.856Z,24.00
2018-09-11T13:18:35.162Z,24.10
2018-09-11T13:21:03.449Z,24.00
2018-09-11T13:23:31.747Z,24.00
2018-09-11T13:26:00.093Z,24.00
2018-09-11T13:28:28.391Z,24.10
2018-09-11T13:30:56.740Z,24.10
2018-09-11T13:35:55.148Z,24.10
2018-09-11T13:38:23.439Z,24.20
2018-09-11T13:40:51.723Z,24.30
2018-09-11T13:43:20.002Z,24.30
2018-09-11T13:45:48.301Z,24.40
2018-09-11T13:48:16.930Z,24.40
2018-09-11T13:50:45.200Z,24.40
2018-09-11T13:53:13.500Z,24.50
2018-09-11T13:55:41.776Z,24.50
2018-09-11T13:58:10.423Z,24.50
2018-09-11T14:00:38.701Z,24.60
2018-09-11T14:03:07.041Z,24.60
2018-09-11T14:05:35.346Z,24.60
2018-09-11T14:08:03.669Z,24.60
2018-09-11T14:10:31.956Z,24.60
2018-09-11T14:13:00.219Z,24.50
2018-09-11T14:15:28.636Z,24.60
2018-09-11T14:17:56.949Z,24.60
2018-09-11T14:20:25.272Z,24.60
2018-09-11T14:22:53.568Z,24.60
2018-09-11T14:25:21.842Z,24.70
2018-09-11T14:27:50.254Z,24.70
2018-09-11T14:30:18.575Z,24.70
2018-09-11T14:32:46.864Z,24.80
2018-09-11T14:35:15.172Z,24.80
2018-09-11T14:37:43.452Z,24.80
2018-09-11T14:40:11.747Z,24.80
2018-09-11T14:42:40.078Z,24.80
2018-09-11T14:45:08.372Z,24.80
2018-09-11T14:47:44.586Z,24.80
2018-09-11T14:50:14.431Z,24.80
2018-09-11T14:52:42.755Z,24.80
2018-09-11T14:55:11.616Z,24.90
2018-09-11T14:57:39.940Z,24.80
2018-09-11T15:00:08.301Z,24.80
2018-09-11T15:02:36.684Z,24.80
2018-09-11T15:05:05.001Z,24.80
2018-09-11T15:07:33.297Z,24.80
2018-09-11T15:10:01.569Z,24.80
2018-09-11T15:12:29.856Z,24.80
2018-09-11T15:14:58.192Z,24.80
2018-09-11T15:17:26.512Z,24.80
2018-09-11T15:19:54.786Z,24.80
2018-09-11T15:22:23.124Z,24.80
2018-09-11T15:24:52.349Z,24.90
2018-09-11T15:27:20.640Z,24.90
2018-09-11T15:29:49.013Z,24.90
2018-09-11T15:32:17.326Z,24.90
2018-09-11T15:34:45.624Z,24.80
2018-09-11T15:37:13.919Z,24.80
2018-09-11T15:39:42.191Z,24.80
2018-09-11T15:42:10.476Z,24.90
2018-09-11T15:44:38.756Z,24.80
2018-09-11T15:47:07.080Z,24.80
2018-09-11T15:49:35.326Z,24.80
2018-09-11T15:52:03.613Z,24.80
2018-09-11T15:54:31.937Z,24.70
2018-09-11T15:57:00.246Z,24.80
2018-09-11T15:59:28.507Z,24.80
2018-09-11T16:01:56.798Z,24.80
2018-09-11T16:04:25.044Z,24.80
2018-09-11T16:06:53.368Z,24.80
2018-09-11T16:09:21.660Z,24.80
2018-09-11T16:11:49.964Z,24.70
2018-09-11T16:14:18.279Z,24.70
2018-09-11T16:16:47.363Z,24.70
2018-09-11T16:19:15.704Z,24.60
2018-09-11T16:21:44.004Z,24.60
2018-09-11T16:24:12.312Z,24.60
2018-09-11T16:26:40.612Z,24.60
2018-09-11T16:29:08.935Z,24.60
2018-09-11T16:31:37.225Z,24.50
2018-09-11T16:34:05.544Z,24.50
2018-09-11T16:36:33.809Z,24.50
2018-09-11T16:39:02.137Z,24.50
2018-09-11T16:41:31.190Z,24.40
2018-09-11T16:43:59.448Z,24.40
2018-09-11T16:46:27.820Z,24.30
2018-09-11T16:48:56.057Z,24.30
2018-09-11T16:51:24.372Z,24.30
2018-09-11T16:53:52.662Z,24.20
2018-09-11T16:56:20.969Z,24.20
2018-09-11T16:58:55.715Z,24.20
2018-09-11T17:01:24.048Z,24.20
2018-09-11T17:03:52.312Z,24.10
2018-09-11T17:06:20.608Z,24.00
2018-09-11T17:08:48.952Z,24.00
2018-09-11T17:11:17.689Z,24.00
2018-09-11T17:13:45.992Z,23.90
2018-09-11T17:16:14.425Z,23.90
2018-09-11T17:18:42.714Z,23.90
2018-09-11T17:21:11.029Z,23.70
2018-09-11T17:23:39.712Z,23.70
2018-09-11T17:26:09.321Z,23.60
2018-09-11T17:28:37.601Z,23.60
2018-09-11T17:31:05.917Z,23.50
2018-09-11T17:33:34.211Z,23.40
2018-09-11T17:36:02.562Z,23.30
2018-09-11T17:38:30.896Z,23.20
2018-09-11T17:40:59.209Z,23.10
2018-09-11T17:43:27.523Z,23.00
2018-09-11T17:45:55.829Z,22.90
2018-09-11T17:48:24.137Z,22.80
2018-09-11T17:50:52.391Z,22.60
2018-09-11T17:53:20.680Z,22.50
2018-09-11T17:55:48.968Z,22.40
2018-09-11T17:58:17.292Z,22.30
2018-09-11T18:00:45.619Z,22.20
2018-09-11T18:03:13.945Z,22.20
2018-09-11T18:05:42.245Z,22.00
2018-09-11T18:08:10.549Z,21.90
2018-09-11T18:10:38.855Z,21.90
2018-09-11T18:13:07.166Z,21.70
2018-09-11T18:15:35.471Z,21.70
2018-09-11T18:18:03.789Z,21.60
2018-09-11T18:20:32.137Z,21.40
2018-09-11T18:23:00.437Z,21.40
2018-09-11T18:25:28.975Z,21.20
2018-09-11T18:27:57.313Z,21.10
2018-09-11T18:30:25.661Z,21.00
2018-09-11T18:32:54.962Z,20.90
2018-09-11T18:35:23.294Z,20.80
2018-09-11T18:37:52.484Z,20.70
2018-09-11T18:40:20.876Z,20.60
2018-09-11T18:42:49.324Z,20.50
2018-09-11T18:45:17.739Z,20.40
2018-09-11T18:47:46.120Z,20.30
2018-09-11T18:50:14.530Z,20.20
2018-09-11T18:52:42.889Z,20.20
2018-09-11T18:55:11.253Z,20.10
2018-09-11T18:57:39.642Z,20.00
2018-09-11T19:00:08.056Z,20.00
2018-09-11T19:02:36.478Z,19.90
2018-09-11T19:05:05.206Z,19.80
2018-09-11T19:07:33.582Z,19.70
2018-09-11T19:10:02.192Z,19.70
2018-09-11T19:12:30.578Z,19.60
2018-09-11T19:14:59.872Z,19.50
2018-09-11T19:17:30.763Z,19.40
2018-09-11T19:19:59.201Z,19.40
2018-09-11T19:22:28.027Z,19.30
2018-09-11T19:24:56.490Z,19.20
2018-09-11T19:27:24.917Z,19.20
2018-09-11T19:29:53.876Z,19.10
2018-09-11T19:32:22.284Z,19.10
2018-09-11T19:34:50.659Z,19.00
2018-09-11T19:37:19.086Z,19.00
2018-09-11T19:39:47.801Z,19.00
2018-09-11T19:42:16.224Z,18.90
2018-09-11T19:44:44.646Z,18.90
2018-09-11T19:47:13.050Z,18.90
2018-09-11T19:49:41.444Z,18.80
2018-09-11T19:52:10.693Z,18.80
2018-09-11T19:54:39.148Z,18.70
2018-09-11T19:57:07.823Z,18.70
2018-09-11T19:59:36.237Z,18.60
2018-09-11T20:02:04.795Z,18.50
2018-09-11T20:04:33.503Z,18.50
2018-09-11T20:07:01.885Z,18.40
2018-09-11T20:09:30.307Z,18.40
2018-09-11T20:11:58.679Z,18.40
2018-09-11T20:14:27.025Z,18.30
2018-09-11T20:16:55.529Z,18.30
2018-09-11T20:19:23.905Z,18.20
2018-09-11T20:21:52.316Z,18.20
2018-09-11T20:24:20.715Z,18.20
2018-09-11T20:26:49.062Z,18.10
2018-09-11T20:29:17.400Z,18.10
2018-09-11T20:31:46.395Z,18.10
2018-09-11T20:34:14.679Z,18.10
2018-09-11T20:36:43.001Z,18.00
2018-09-11T20:39:12.334Z,17.90
2018-09-11T20:41:40.818Z,17.90
2018-09-11T20:44:11.170Z,17.80
2018-09-11T20:46:39.588Z,17.80
2018-09-11T20:49:08.912Z,17.70
2018-09-11T20:51:37.237Z,17.70
2018-09-11T20:54:05.537Z,17.70
2018-09-11T20:56:33.807Z,17.60
2018-09-11T20:59:02.147Z,17.60
2018-09-11T21:01:30.429Z,17.60
2018-09-11T21:03:58.735Z,17.70
2018-09-11T21:06:27.057Z,17.60
2018-09-11T21:08:55.338Z,17.60
2018-09-11T21:11:23.699Z,17.60
2018-09-11T21:13:51.975Z,17.60
2018-09-11T21:16:20.288Z,17.60
2018-09-11T21:18:48.566Z,17.50
2018-09-11T21:21:16.894Z,17.50
2018-09-11T21:23:45.186Z,17.40
2018-09-11T21:26:13.452Z,17.30
2018-09-11T21:28:41.773Z,17.30
2018-09-11T21:31:10.110Z,17.20
2018-09-11T21:33:38.426Z,17.20
2018-09-11T21:36:06.688Z,17.10
2018-09-11T21:38:34.973Z,17.10
2018-09-11T21:41:03.257Z,17.10
2018-09-11T21:43:31.528Z,17.10
2018-09-11T21:45:59.803Z,17.10
2018-09-11T21:48:28.079Z,17.00
2018-09-11T21:50:57.038Z,17.00
2018-09-11T21:53:25.349Z,17.00
2018-09-11T21:55:53.637Z,16.90
2018-09-11T21:58:21.940Z,16.90
2018-09-11T22:00:55.590Z,16.90
2018-09-11T22:03:24.098Z,16.90
2018-09-11T22:05:52.376Z,16.80
2018-09-11T22:08:21.294Z,16.70
2018-09-11T22:10:49.557Z,16.70
2018-09-11T22:13:17.895Z,16.70
2018-09-11T22:15:46.152Z,16.60
2018-09-11T22:18:14.460Z,16.60
2018-09-11T22:20:42.767Z,16.70
2018-09-11T22:23:11.027Z,16.60
2018-09-11T22:25:39.303Z,16.60
2018-09-11T22:28:07.595Z,16.60
2018-09-11T22:30:35.895Z,16.60
2018-09-11T22:33:04.173Z,16.50
2018-09-11T22:35:32.465Z,16.50
2018-09-11T22:38:01.252Z,16.40
2018-09-11T22:40:29.515Z,16.40
2018-09-11T22:42:57.830Z,16.40
2018-09-11T22:45:26.083Z,16.40
2018-09-11T22:47:54.363Z,16.40
2018-09-11T22:50:22.672Z,16.30
2018-09-11T22:52:50.949Z,16.30
2018-09-11T22:55:19.352Z,16.30
2018-09-11T22:57:47.625Z,16.30
2018-09-11T23:00:15.920Z,16.20
2018-09-11T23:02:44.214Z,16.20
2018-09-11T23:05:12.490Z,16.20
2018-09-11T23:07:40.780Z,16.10
2018-09-11T23:10:09.060Z,16.00
2018-09-11T23:12:37.357Z,16.00
2018-09-11T23:15:05.895Z,16.00
2018-09-11T23:17:34.196Z,16.00
2018-09-11T23:20:02.524Z,16.00
2018-09-11T23:22:30.791Z,16.00
2018-09-11T23:24:59.069Z,15.90
2018-09-11T23:27:27.371Z,15.90
2018-09-11T23:29:55.625Z,15.90
2018-09-11T23:32:24.143Z,15.80
2018-09-11T23:34:52.503Z,15.80
2018-09-11T23:37:20.762Z,15.90
2018-09-11T23:39:49.044Z,15.80
2018-09-11T23:42:17.315Z,15.80
2018-09-11T23:44:45.594Z,15.70
2018-09-11T23:47:13.875Z,15.70
2018-09-11T23:49:42.167Z,15.70
2018-09-11T23:52:10.502Z,15.70
2018-09-11T23:54:38.774Z,15.60
2018-09-11T23:57:07.068Z,15.60
2018-09-11T23:59:35.357Z,15.60
